Airfield :
LOGIN :

Register | Disclaimer

   EN    FR    IT 

 










Legend :    VFR   Marginal VFR   IFR   Intensive IFR   Very Intensive IFR
Visi :
Ceiling :
>= 8 km
>= 3000ft
5 to 8 km
1000 to 3000 ft
1500m to 5 km
500 to 1000 ft
800 to 1500m
200 to 500 ft
< 800m
< 200 ft
Symbols :   Thunderstorms  Fog  Heavy snow  Heavy precipitations  Wind > 20 kt
SIGMETs :     Misc.  Thunderstorms  Icing  Turbulence  Mountain Waves  Volcanic Ashes







- Airport Elevation : 1071 ft
- IATA code : LWO


UKLL - L'viv

CURRENT METAR :
  • 240400Z 27002MPS 240V300 CAVOK M04/M08 Q1037 R31/810560 NOSIG

EXPIRED METARs :
  • 240330Z 27003MPS CAVOK M04/M08 Q1037 R31/810560 NOSIG
  • 240300Z 26003MPS CAVOK M04/M08 Q1037 R31/810560 NOSIG
  • 240230Z 26003MPS CAVOK M04/M08 Q1037 R31/810560 NOSIG
  • 240200Z 26002MPS CAVOK M04/M08 Q1038 R31/810560 NOSIG
  • 240130Z 24002MPS 220V280 CAVOK M04/M09 Q1037 R31/810560 NOSIG
  • 240100Z 24002MPS 200V270 CAVOK M04/M09 Q1038 R31/810560 NOSIG

TAF TAF UKLL
Valid from the 24 at 00:00 until the 25 at 00:00 UTC


232302Z 2400/2424 VRB01MPS 9999 BKN040 TXM00/2412Z TNM06/2404Z
BECMG 2404/2405 26005MPS
TEMPO 2405/2424 28005MPS BKN010
No reported NOTAMs for that airfield.



MET'MAP, your aeronautical weather chart ! - Copyright ORBIFLY December 2007 - Disclaimer

ORBIFLY MET'MAP TEAM :

Programming & Development : Alexandra Zaïnal
Concept & Development : Baudouin d'Aumeries
Co-Development & Prog : Marc-Olivier Méhu
Technical & hardware support : Manuel Goepfert

Contact : metmap@orbifly.com




SOURCES & CREDITS :

   NOAA